sensor_id;sensor_type;location;lat;lon;timestamp;P1;durP1;ratioP1;P2;durP2;ratioP2
13590;SDS011;6866;50.778;7.206;2023-05-29T00:01:28;8.65;;;4.53;;
13590;SDS011;6866;50.778;7.206;2023-05-29T00:03:56;8.35;;;4.47;;
13590;SDS011;6866;50.778;7.206;2023-05-29T00:06:21;11.77;;;5.22;;
13590;SDS011;6866;50.778;7.206;2023-05-29T00:08:48;8.88;;;4.45;;
13590;SDS011;6866;50.778;7.206;2023-05-29T00:11:14;10.75;;;4.90;;
13590;SDS011;6866;50.778;7.206;2023-05-29T00:13:39;14.50;;;4.90;;
13590;SDS011;6866;50.778;7.206;2023-05-29T00:16:05;11.07;;;4.63;;
13590;SDS011;6866;50.778;7.206;2023-05-29T00:18:31;9.05;;;4.80;;
13590;SDS011;6866;50.778;7.206;2023-05-29T00:20:56;11.82;;;4.95;;
13590;SDS011;6866;50.778;7.206;2023-05-29T00:23:22;13.23;;;4.68;;
13590;SDS011;6866;50.778;7.206;2023-05-29T00:25:48;10.07;;;4.80;;
13590;SDS011;6866;50.778;7.206;2023-05-29T00:28:13;11.15;;;4.90;;
13590;SDS011;6866;50.778;7.206;2023-05-29T00:30:39;9.35;;;4.22;;
13590;SDS011;6866;50.778;7.206;2023-05-29T00:33:05;8.77;;;4.75;;
13590;SDS011;6866;50.778;7.206;2023-05-29T00:35:30;9.30;;;4.38;;
13590;SDS011;6866;50.778;7.206;2023-05-29T00:37:57;10.00;;;4.53;;
13590;SDS011;6866;50.778;7.206;2023-05-29T00:40:23;10.85;;;4.78;;
13590;SDS011;6866;50.778;7.206;2023-05-29T00:42:48;9.23;;;4.18;;
13590;SDS011;6866;50.778;7.206;2023-05-29T00:45:14;7.80;;;4.10;;
13590;SDS011;6866;50.778;7.206;2023-05-29T00:47:41;10.73;;;4.68;;
13590;SDS011;6866;50.778;7.206;2023-05-29T00:50:08;10.73;;;4.40;;
13590;SDS011;6866;50.778;7.206;2023-05-29T00:52:35;8.27;;;4.57;;
13590;SDS011;6866;50.778;7.206;2023-05-29T00:55:02;12.20;;;4.65;;
13590;SDS011;6866;50.778;7.206;2023-05-29T00:57:28;10.85;;;4.45;;
13590;SDS011;6866;50.778;7.206;2023-05-29T00:59:55;9.73;;;4.63;;
13590;SDS011;6866;50.778;7.206;2023-05-29T01:04:56;14.05;;;4.75;;
13590;SDS011;6866;50.778;7.206;2023-05-29T01:07:22;9.10;;;4.47;;
13590;SDS011;6866;50.778;7.206;2023-05-29T01:09:48;11.63;;;5.05;;
13590;SDS011;6866;50.778;7.206;2023-05-29T01:12:29;10.77;;;4.57;;
13590;SDS011;6866;50.778;7.206;2023-05-29T01:20:40;10.02;;;4.68;;
13590;SDS011;6866;50.778;7.206;2023-05-29T01:26:21;13.02;;;4.55;;
13590;SDS011;6866;50.778;7.206;2023-05-29T01:28:56;10.20;;;4.33;;
13590;SDS011;6866;50.778;7.206;2023-05-29T01:31:25;14.50;;;3.75;;
13590;SDS011;6866;50.778;7.206;2023-05-29T01:33:58;9.73;;;4.47;;
13590;SDS011;6866;50.778;7.206;2023-05-29T01:36:27;11.45;;;5.00;;
13590;SDS011;6866;50.778;7.206;2023-05-29T01:38:53;16.95;;;4.90;;
13590;SDS011;6866;50.778;7.206;2023-05-29T01:41:21;11.00;;;4.60;;
13590;SDS011;6866;50.778;7.206;2023-05-29T01:43:48;9.48;;;4.45;;
13590;SDS011;6866;50.778;7.206;2023-05-29T01:46:15;9.73;;;4.20;;
13590;SDS011;6866;50.778;7.206;2023-05-29T01:48:41;13.18;;;5.03;;
13590;SDS011;6866;50.778;7.206;2023-05-29T01:51:08;11.82;;;4.60;;
13590;SDS011;6866;50.778;7.206;2023-05-29T01:53:36;10.43;;;4.80;;
13590;SDS011;6866;50.778;7.206;2023-05-29T01:56:01;11.52;;;4.65;;
13590;SDS011;6866;50.778;7.206;2023-05-29T01:58:28;11.05;;;4.57;;
13590;SDS011;6866;50.778;7.206;2023-05-29T02:00:55;9.73;;;4.53;;
13590;SDS011;6866;50.778;7.206;2023-05-29T02:03:21;13.65;;;4.63;;
13590;SDS011;6866;50.778;7.206;2023-05-29T02:05:47;8.90;;;4.95;;
13590;SDS011;6866;50.778;7.206;2023-05-29T02:08:12;7.80;;;4.43;;
13590;SDS011;6866;50.778;7.206;2023-05-29T02:10:38;11.57;;;5.20;;
13590;SDS011;6866;50.778;7.206;2023-05-29T02:13:03;9.20;;;4.45;;
13590;SDS011;6866;50.778;7.206;2023-05-29T02:15:29;13.93;;;4.88;;
13590;SDS011;6866;50.778;7.206;2023-05-29T02:17:55;12.70;;;4.65;;
13590;SDS011;6866;50.778;7.206;2023-05-29T02:20:20;12.82;;;5.07;;
13590;SDS011;6866;50.778;7.206;2023-05-29T02:22:46;11.43;;;5.22;;
13590;SDS011;6866;50.778;7.206;2023-05-29T02:25:11;12.32;;;4.47;;
13590;SDS011;6866;50.778;7.206;2023-05-29T02:27:37;12.13;;;4.65;;
13590;SDS011;6866;50.778;7.206;2023-05-29T02:30:03;10.38;;;4.65;;
13590;SDS011;6866;50.778;7.206;2023-05-29T02:32:30;11.43;;;4.40;;
13590;SDS011;6866;50.778;7.206;2023-05-29T02:34:55;11.43;;;4.60;;
13590;SDS011;6866;50.778;7.206;2023-05-29T02:37:22;9.90;;;4.70;;
13590;SDS011;6866;50.778;7.206;2023-05-29T02:39:50;10.10;;;4.30;;
13590;SDS011;6866;50.778;7.206;2023-05-29T02:42:16;10.98;;;4.97;;
13590;SDS011;6866;50.778;7.206;2023-05-29T02:44:41;10.07;;;4.25;;
13590;SDS011;6866;50.778;7.206;2023-05-29T02:47:07;12.63;;;4.40;;
13590;SDS011;6866;50.778;7.206;2023-05-29T02:49:32;9.52;;;4.22;;
13590;SDS011;6866;50.778;7.206;2023-05-29T02:51:58;11.25;;;4.43;;
13590;SDS011;6866;50.778;7.206;2023-05-29T02:54:24;10.18;;;4.53;;
13590;SDS011;6866;50.778;7.206;2023-05-29T02:56:50;9.80;;;4.43;;
13590;SDS011;6866;50.778;7.206;2023-05-29T02:59:16;8.63;;;4.38;;
13590;SDS011;6866;50.778;7.206;2023-05-29T03:01:41;7.63;;;4.53;;
13590;SDS011;6866;50.778;7.206;2023-05-29T03:04:08;9.75;;;4.63;;
13590;SDS011;6866;50.778;7.206;2023-05-29T03:06:37;10.50;;;4.25;;
13590;SDS011;6866;50.778;7.206;2023-05-29T03:09:03;11.77;;;4.25;;
13590;SDS011;6866;50.778;7.206;2023-05-29T03:11:30;8.13;;;4.40;;
13590;SDS011;6866;50.778;7.206;2023-05-29T03:13:56;11.48;;;4.45;;
13590;SDS011;6866;50.778;7.206;2023-05-29T03:16:21;10.30;;;4.53;;
13590;SDS011;6866;50.778;7.206;2023-05-29T03:18:47;7.50;;;4.40;;
13590;SDS011;6866;50.778;7.206;2023-05-29T03:21:12;10.77;;;4.43;;
13590;SDS011;6866;50.778;7.206;2023-05-29T03:23:38;8.98;;;4.60;;
13590;SDS011;6866;50.778;7.206;2023-05-29T03:26:04;12.30;;;4.63;;
13590;SDS011;6866;50.778;7.206;2023-05-29T03:28:30;11.02;;;4.50;;
13590;SDS011;6866;50.778;7.206;2023-05-29T03:30:56;9.05;;;4.28;;
13590;SDS011;6866;50.778;7.206;2023-05-29T03:33:22;9.43;;;4.50;;
13590;SDS011;6866;50.778;7.206;2023-05-29T03:35:47;11.95;;;4.63;;
13590;SDS011;6866;50.778;7.206;2023-05-29T03:38:13;10.77;;;4.03;;
13590;SDS011;6866;50.778;7.206;2023-05-29T03:40:38;7.30;;;4.15;;
13590;SDS011;6866;50.778;7.206;2023-05-29T03:43:04;9.90;;;4.20;;
13590;SDS011;6866;50.778;7.206;2023-05-29T03:45:29;9.13;;;4.03;;
13590;SDS011;6866;50.778;7.206;2023-05-29T03:47:55;10.80;;;4.88;;
13590;SDS011;6866;50.778;7.206;2023-05-29T03:50:20;11.05;;;4.10;;
13590;SDS011;6866;50.778;7.206;2023-05-29T03:52:46;9.18;;;4.22;;
13590;SDS011;6866;50.778;7.206;2023-05-29T03:55:12;9.27;;;4.20;;
13590;SDS011;6866;50.778;7.206;2023-05-29T03:57:38;11.05;;;4.28;;
13590;SDS011;6866;50.778;7.206;2023-05-29T04:00:08;8.95;;;3.90;;
13590;SDS011;6866;50.778;7.206;2023-05-29T04:02:40;10.57;;;4.60;;
13590;SDS011;6866;50.778;7.206;2023-05-29T04:05:05;9.07;;;4.07;;
13590;SDS011;6866;50.778;7.206;2023-05-29T04:07:32;9.45;;;4.50;;
13590;SDS011;6866;50.778;7.206;2023-05-29T04:09:58;10.20;;;4.10;;
13590;SDS011;6866;50.778;7.206;2023-05-29T04:12:24;8.48;;;4.40;;
13590;SDS011;6866;50.778;7.206;2023-05-29T04:14:49;10.25;;;4.28;;
13590;SDS011;6866;50.778;7.206;2023-05-29T04:17:15;11.00;;;4.22;;
13590;SDS011;6866;50.778;7.206;2023-05-29T04:19:40;9.75;;;4.22;;
13590;SDS011;6866;50.778;7.206;2023-05-29T04:22:06;8.60;;;3.88;;
13590;SDS011;6866;50.778;7.206;2023-05-29T04:24:32;10.98;;;4.63;;
13590;SDS011;6866;50.778;7.206;2023-05-29T04:26:58;10.43;;;4.68;;
13590;SDS011;6866;50.778;7.206;2023-05-29T04:29:25;11.63;;;4.47;;
13590;SDS011;6866;50.778;7.206;2023-05-29T04:31:51;10.70;;;4.63;;
13590;SDS011;6866;50.778;7.206;2023-05-29T04:34:17;10.23;;;4.05;;
13590;SDS011;6866;50.778;7.206;2023-05-29T04:36:42;8.75;;;4.32;;
13590;SDS011;6866;50.778;7.206;2023-05-29T04:39:09;12.35;;;4.72;;
13590;SDS011;6866;50.778;7.206;2023-05-29T04:41:35;8.63;;;4.28;;
13590;SDS011;6866;50.778;7.206;2023-05-29T04:44:03;9.48;;;4.70;;
13590;SDS011;6866;50.778;7.206;2023-05-29T04:46:29;10.32;;;4.40;;
13590;SDS011;6866;50.778;7.206;2023-05-29T04:48:54;9.48;;;4.72;;
13590;SDS011;6866;50.778;7.206;2023-05-29T04:51:21;12.48;;;5.28;;
13590;SDS011;6866;50.778;7.206;2023-05-29T04:53:47;12.45;;;5.03;;
13590;SDS011;6866;50.778;7.206;2023-05-29T04:56:16;12.18;;;4.82;;
13590;SDS011;6866;50.778;7.206;2023-05-29T04:58:43;16.25;;;5.30;;
13590;SDS011;6866;50.778;7.206;2023-05-29T05:01:09;10.45;;;4.70;;
13590;SDS011;6866;50.778;7.206;2023-05-29T05:03:39;12.85;;;5.15;;
13590;SDS011;6866;50.778;7.206;2023-05-29T05:06:07;11.07;;;5.22;;
13590;SDS011;6866;50.778;7.206;2023-05-29T05:08:33;12.82;;;4.93;;
13590;SDS011;6866;50.778;7.206;2023-05-29T05:10:59;11.77;;;5.60;;
13590;SDS011;6866;50.778;7.206;2023-05-29T05:13:25;12.07;;;5.30;;
13590;SDS011;6866;50.778;7.206;2023-05-29T05:15:52;14.20;;;5.22;;
13590;SDS011;6866;50.778;7.206;2023-05-29T05:18:18;12.45;;;5.20;;
13590;SDS011;6866;50.778;7.206;2023-05-29T05:20:44;8.10;;;4.57;;
13590;SDS011;6866;50.778;7.206;2023-05-29T05:23:10;14.43;;;5.20;;
13590;SDS011;6866;50.778;7.206;2023-05-29T05:25:36;12.20;;;5.13;;
13590;SDS011;6866;50.778;7.206;2023-05-29T05:28:03;10.65;;;4.97;;
13590;SDS011;6866;50.778;7.206;2023-05-29T05:30:29;12.65;;;5.22;;
13590;SDS011;6866;50.778;7.206;2023-05-29T05:32:55;11.80;;;4.93;;
13590;SDS011;6866;50.778;7.206;2023-05-29T05:35:21;10.98;;;4.65;;
13590;SDS011;6866;50.778;7.206;2023-05-29T05:37:47;11.90;;;4.78;;
13590;SDS011;6866;50.778;7.206;2023-05-29T05:40:12;11.00;;;4.38;;
13590;SDS011;6866;50.778;7.206;2023-05-29T05:42:38;11.38;;;4.57;;
13590;SDS011;6866;50.778;7.206;2023-05-29T05:45:04;9.60;;;4.97;;
13590;SDS011;6866;50.778;7.206;2023-05-29T05:47:31;9.65;;;4.43;;
13590;SDS011;6866;50.778;7.206;2023-05-29T05:49:57;9.50;;;4.65;;
13590;SDS011;6866;50.778;7.206;2023-05-29T05:52:23;11.98;;;4.70;;
13590;SDS011;6866;50.778;7.206;2023-05-29T05:54:50;10.20;;;4.50;;
13590;SDS011;6866;50.778;7.206;2023-05-29T05:57:17;9.18;;;4.55;;
13590;SDS011;6866;50.778;7.206;2023-05-29T05:59:42;9.02;;;4.38;;
13590;SDS011;6866;50.778;7.206;2023-05-29T06:02:08;10.52;;;4.85;;
13590;SDS011;6866;50.778;7.206;2023-05-29T06:04:33;11.90;;;4.75;;
13590;SDS011;6866;50.778;7.206;2023-05-29T06:06:59;9.73;;;4.22;;
13590;SDS011;6866;50.778;7.206;2023-05-29T06:09:25;11.73;;;4.55;;
13590;SDS011;6866;50.778;7.206;2023-05-29T06:11:50;10.93;;;4.32;;
13590;SDS011;6866;50.778;7.206;2023-05-29T06:14:16;11.88;;;4.45;;
13590;SDS011;6866;50.778;7.206;2023-05-29T06:19:08;12.30;;;4.40;;
13590;SDS011;6866;50.778;7.206;2023-05-29T06:21:34;10.20;;;4.50;;
13590;SDS011;6866;50.778;7.206;2023-05-29T06:23:59;11.13;;;4.30;;
13590;SDS011;6866;50.778;7.206;2023-05-29T06:33:42;10.70;;;4.18;;
13590;SDS011;6866;50.778;7.206;2023-05-29T06:57:58;9.30;;;4.22;;
13590;SDS011;6866;50.778;7.206;2023-05-29T07:00:23;12.10;;;5.10;;
13590;SDS011;6866;50.778;7.206;2023-05-29T08:49:57;11.85;;;4.00;;
13590;SDS011;6866;50.778;7.206;2023-05-29T08:52:25;10.50;;;4.30;;
13590;SDS011;6866;50.778;7.206;2023-05-29T08:54:52;10.93;;;3.70;;
13590;SDS011;6866;50.778;7.206;2023-05-29T08:57:19;9.93;;;3.90;;
13590;SDS011;6866;50.778;7.206;2023-05-29T08:59:45;13.40;;;4.30;;
13590;SDS011;6866;50.778;7.206;2023-05-29T09:02:14;8.75;;;3.95;;
13590;SDS011;6866;50.778;7.206;2023-05-29T09:04:43;10.48;;;4.43;;
13590;SDS011;6866;50.778;7.206;2023-05-29T09:07:19;12.70;;;4.18;;
13590;SDS011;6866;50.778;7.206;2023-05-29T09:09:45;9.27;;;3.90;;
13590;SDS011;6866;50.778;7.206;2023-05-29T09:12:11;11.02;;;4.05;;
13590;SDS011;6866;50.778;7.206;2023-05-29T09:14:38;14.13;;;4.30;;
13590;SDS011;6866;50.778;7.206;2023-05-29T09:17:07;10.57;;;4.00;;
13590;SDS011;6866;50.778;7.206;2023-05-29T09:19:35;9.18;;;3.67;;
13590;SDS011;6866;50.778;7.206;2023-05-29T09:22:04;10.85;;;3.90;;
13590;SDS011;6866;50.778;7.206;2023-05-29T09:24:46;11.05;;;4.05;;
13590;SDS011;6866;50.778;7.206;2023-05-29T09:27:13;14.05;;;3.85;;
13590;SDS011;6866;50.778;7.206;2023-05-29T09:29:42;12.10;;;4.07;;
13590;SDS011;6866;50.778;7.206;2023-05-29T09:32:09;11.52;;;3.70;;
13590;SDS011;6866;50.778;7.206;2023-05-29T09:34:35;9.90;;;3.83;;
13590;SDS011;6866;50.778;7.206;2023-05-29T09:37:02;10.07;;;3.60;;
13590;SDS011;6866;50.778;7.206;2023-05-29T09:39:43;9.73;;;4.00;;
13590;SDS011;6866;50.778;7.206;2023-05-29T09:42:11;10.15;;;3.72;;
13590;SDS011;6866;50.778;7.206;2023-05-29T09:44:37;9.77;;;3.80;;
13590;SDS011;6866;50.778;7.206;2023-05-29T09:47:05;12.02;;;4.13;;
13590;SDS011;6866;50.778;7.206;2023-05-29T09:49:31;8.52;;;3.38;;
13590;SDS011;6866;50.778;7.206;2023-05-29T09:51:57;9.05;;;3.60;;
13590;SDS011;6866;50.778;7.206;2023-05-29T09:54:26;10.05;;;3.88;;
13590;SDS011;6866;50.778;7.206;2023-05-29T09:56:55;13.63;;;3.58;;
13590;SDS011;6866;50.778;7.206;2023-05-29T09:59:23;10.35;;;3.60;;
13590;SDS011;6866;50.778;7.206;2023-05-29T10:01:53;11.30;;;4.32;;
13590;SDS011;6866;50.778;7.206;2023-05-29T10:04:29;9.25;;;3.90;;
13590;SDS011;6866;50.778;7.206;2023-05-29T10:06:57;10.98;;;3.40;;
13590;SDS011;6866;50.778;7.206;2023-05-29T10:09:38;9.82;;;3.60;;
13590;SDS011;6866;50.778;7.206;2023-05-29T10:12:11;9.73;;;3.80;;
13590;SDS011;6866;50.778;7.206;2023-05-29T10:14:38;11.55;;;3.70;;
13590;SDS011;6866;50.778;7.206;2023-05-29T10:17:06;10.07;;;3.35;;
13590;SDS011;6866;50.778;7.206;2023-05-29T10:19:34;8.93;;;3.58;;
13590;SDS011;6866;50.778;7.206;2023-05-29T10:22:01;9.38;;;3.92;;
13590;SDS011;6866;50.778;7.206;2023-05-29T10:24:28;9.45;;;3.67;;
13590;SDS011;6866;50.778;7.206;2023-05-29T10:26:56;10.45;;;3.92;;
13590;SDS011;6866;50.778;7.206;2023-05-29T10:29:31;11.25;;;5.45;;
13590;SDS011;6866;50.778;7.206;2023-05-29T10:35:14;8.48;;;3.70;;
13590;SDS011;6866;50.778;7.206;2023-05-29T10:37:46;11.35;;;3.67;;
13590;SDS011;6866;50.778;7.206;2023-05-29T10:40:28;11.32;;;3.70;;
13590;SDS011;6866;50.778;7.206;2023-05-29T10:42:53;12.65;;;4.10;;
13590;SDS011;6866;50.778;7.206;2023-05-29T10:47:55;8.13;;;3.55;;
13590;SDS011;6866;50.778;7.206;2023-05-29T10:50:36;12.30;;;3.83;;
13590;SDS011;6866;50.778;7.206;2023-05-29T10:53:03;10.13;;;3.88;;
13590;SDS011;6866;50.778;7.206;2023-05-29T10:55:34;10.23;;;3.65;;
13590;SDS011;6866;50.778;7.206;2023-05-29T10:58:07;9.13;;;3.58;;
13590;SDS011;6866;50.778;7.206;2023-05-29T11:00:40;11.35;;;3.45;;
13590;SDS011;6866;50.778;7.206;2023-05-29T11:03:11;11.32;;;3.95;;
13590;SDS011;6866;50.778;7.206;2023-05-29T11:08:55;9.55;;;3.40;;
13590;SDS011;6866;50.778;7.206;2023-05-29T11:13:54;11.80;;;3.88;;
13590;SDS011;6866;50.778;7.206;2023-05-29T11:18:54;15.20;;;3.67;;
13590;SDS011;6866;50.778;7.206;2023-05-29T11:26:53;11.75;;;3.40;;
13590;SDS011;6866;50.778;7.206;2023-05-29T11:29:38;8.55;;;3.50;;
13590;SDS011;6866;50.778;7.206;2023-05-29T11:32:05;8.70;;;3.15;;
13590;SDS011;6866;50.778;7.206;2023-05-29T11:34:35;9.38;;;3.25;;
13590;SDS011;6866;50.778;7.206;2023-05-29T11:37:06;10.35;;;3.83;;
13590;SDS011;6866;50.778;7.206;2023-05-29T11:39:35;11.13;;;3.28;;
13590;SDS011;6866;50.778;7.206;2023-05-29T11:42:01;10.55;;;3.53;;
13590;SDS011;6866;50.778;7.206;2023-05-29T11:44:27;11.27;;;3.35;;
13590;SDS011;6866;50.778;7.206;2023-05-29T11:47:03;11.05;;;3.55;;
13590;SDS011;6866;50.778;7.206;2023-05-29T11:49:30;10.80;;;3.83;;
13590;SDS011;6866;50.778;7.206;2023-05-29T11:52:13;10.00;;;3.45;;
13590;SDS011;6866;50.778;7.206;2023-05-29T11:54:39;8.85;;;3.10;;
13590;SDS011;6866;50.778;7.206;2023-05-29T11:57:16;10.25;;;3.58;;
13590;SDS011;6866;50.778;7.206;2023-05-29T11:59:45;9.07;;;3.38;;
13590;SDS011;6866;50.778;7.206;2023-05-29T12:02:11;9.82;;;3.33;;
13590;SDS011;6866;50.778;7.206;2023-05-29T12:04:37;8.90;;;3.50;;
13590;SDS011;6866;50.778;7.206;2023-05-29T12:07:16;10.68;;;3.30;;
13590;SDS011;6866;50.778;7.206;2023-05-29T12:09:44;16.38;;;3.75;;
13590;SDS011;6866;50.778;7.206;2023-05-29T12:12:10;9.50;;;3.70;;
13590;SDS011;6866;50.778;7.206;2023-05-29T12:14:35;11.63;;;3.50;;
13590;SDS011;6866;50.778;7.206;2023-05-29T12:17:01;11.55;;;3.22;;
13590;SDS011;6866;50.778;7.206;2023-05-29T12:19:27;12.82;;;4.03;;
13590;SDS011;6866;50.778;7.206;2023-05-29T12:21:53;11.75;;;4.10;;
13590;SDS011;6866;50.778;7.206;2023-05-29T12:24:19;8.35;;;2.97;;
13590;SDS011;6866;50.778;7.206;2023-05-29T12:26:44;9.68;;;3.42;;
13590;SDS011;6866;50.778;7.206;2023-05-29T12:29:12;10.20;;;3.50;;
13590;SDS011;6866;50.778;7.206;2023-05-29T12:31:38;9.60;;;3.17;;
13590;SDS011;6866;50.778;7.206;2023-05-29T12:34:07;9.73;;;3.42;;
13590;SDS011;6866;50.778;7.206;2023-05-29T12:36:35;13.88;;;3.47;;
13590;SDS011;6866;50.778;7.206;2023-05-29T12:39:04;8.27;;;3.38;;
13590;SDS011;6866;50.778;7.206;2023-05-29T12:41:33;10.98;;;3.22;;
13590;SDS011;6866;50.778;7.206;2023-05-29T12:44:01;13.35;;;3.30;;
13590;SDS011;6866;50.778;7.206;2023-05-29T12:46:35;9.48;;;3.45;;
13590;SDS011;6866;50.778;7.206;2023-05-29T12:49:14;11.27;;;3.40;;
13590;SDS011;6866;50.778;7.206;2023-05-29T12:51:41;8.52;;;3.10;;
13590;SDS011;6866;50.778;7.206;2023-05-29T12:54:11;10.10;;;3.13;;
13590;SDS011;6866;50.778;7.206;2023-05-29T12:56:38;11.57;;;3.47;;
13590;SDS011;6866;50.778;7.206;2023-05-29T12:59:07;11.48;;;3.20;;
13590;SDS011;6866;50.778;7.206;2023-05-29T13:01:34;9.57;;;3.20;;
13590;SDS011;6866;50.778;7.206;2023-05-29T13:04:01;13.50;;;3.53;;
13590;SDS011;6866;50.778;7.206;2023-05-29T13:06:27;10.73;;;3.60;;
13590;SDS011;6866;50.778;7.206;2023-05-29T13:08:52;10.90;;;3.58;;
13590;SDS011;6866;50.778;7.206;2023-05-29T13:11:18;10.45;;;3.47;;
13590;SDS011;6866;50.778;7.206;2023-05-29T13:13:44;10.93;;;3.55;;
13590;SDS011;6866;50.778;7.206;2023-05-29T13:16:09;9.63;;;3.38;;
13590;SDS011;6866;50.778;7.206;2023-05-29T13:18:35;12.50;;;3.80;;
13590;SDS011;6866;50.778;7.206;2023-05-29T13:21:00;10.50;;;3.50;;
13590;SDS011;6866;50.778;7.206;2023-05-29T13:23:26;9.45;;;3.55;;
13590;SDS011;6866;50.778;7.206;2023-05-29T13:25:52;11.02;;;3.42;;
13590;SDS011;6866;50.778;7.206;2023-05-29T13:28:19;10.60;;;3.38;;
13590;SDS011;6866;50.778;7.206;2023-05-29T13:30:44;11.20;;;3.35;;
13590;SDS011;6866;50.778;7.206;2023-05-29T13:33:10;9.35;;;3.30;;
13590;SDS011;6866;50.778;7.206;2023-05-29T13:35:36;9.68;;;2.88;;
13590;SDS011;6866;50.778;7.206;2023-05-29T13:38:01;12.75;;;3.55;;
13590;SDS011;6866;50.778;7.206;2023-05-29T13:40:27;9.32;;;3.30;;
13590;SDS011;6866;50.778;7.206;2023-05-29T13:42:53;9.45;;;3.45;;
13590;SDS011;6866;50.778;7.206;2023-05-29T13:45:19;9.80;;;3.63;;
13590;SDS011;6866;50.778;7.206;2023-05-29T13:47:44;12.60;;;3.58;;
13590;SDS011;6866;50.778;7.206;2023-05-29T13:50:10;11.70;;;3.45;;
13590;SDS011;6866;50.778;7.206;2023-05-29T13:52:36;14.00;;;3.10;;
13590;SDS011;6866;50.778;7.206;2023-05-29T13:55:01;9.25;;;3.50;;
13590;SDS011;6866;50.778;7.206;2023-05-29T13:57:33;9.38;;;3.28;;
13590;SDS011;6866;50.778;7.206;2023-05-29T13:59:59;11.30;;;3.42;;
13590;SDS011;6866;50.778;7.206;2023-05-29T14:02:25;8.57;;;3.17;;
13590;SDS011;6866;50.778;7.206;2023-05-29T14:04:51;11.60;;;3.60;;
13590;SDS011;6866;50.778;7.206;2023-05-29T14:07:17;12.35;;;3.47;;
13590;SDS011;6866;50.778;7.206;2023-05-29T14:09:42;7.93;;;3.00;;
13590;SDS011;6866;50.778;7.206;2023-05-29T14:12:08;10.50;;;3.08;;
13590;SDS011;6866;50.778;7.206;2023-05-29T14:14:33;9.75;;;3.40;;
13590;SDS011;6866;50.778;7.206;2023-05-29T14:16:59;11.35;;;3.00;;
13590;SDS011;6866;50.778;7.206;2023-05-29T14:19:25;12.73;;;3.40;;
13590;SDS011;6866;50.778;7.206;2023-05-29T14:21:51;11.93;;;3.20;;
13590;SDS011;6866;50.778;7.206;2023-05-29T14:24:17;8.70;;;3.03;;
13590;SDS011;6866;50.778;7.206;2023-05-29T14:26:43;10.73;;;3.38;;
13590;SDS011;6866;50.778;7.206;2023-05-29T14:29:11;10.40;;;3.42;;
13590;SDS011;6866;50.778;7.206;2023-05-29T14:31:38;11.05;;;3.50;;
13590;SDS011;6866;50.778;7.206;2023-05-29T14:34:04;11.00;;;3.30;;
13590;SDS011;6866;50.778;7.206;2023-05-29T14:36:30;10.82;;;2.97;;
13590;SDS011;6866;50.778;7.206;2023-05-29T14:38:55;8.90;;;3.17;;
13590;SDS011;6866;50.778;7.206;2023-05-29T14:41:21;12.07;;;3.40;;
13590;SDS011;6866;50.778;7.206;2023-05-29T14:43:46;10.15;;;3.50;;
13590;SDS011;6866;50.778;7.206;2023-05-29T14:46:12;14.32;;;3.45;;
13590;SDS011;6866;50.778;7.206;2023-05-29T14:48:38;11.00;;;3.40;;
13590;SDS011;6866;50.778;7.206;2023-05-29T14:51:03;9.20;;;3.10;;
13590;SDS011;6866;50.778;7.206;2023-05-29T14:53:29;9.77;;;3.10;;
13590;SDS011;6866;50.778;7.206;2023-05-29T14:55:56;15.20;;;3.65;;
13590;SDS011;6866;50.778;7.206;2023-05-29T14:58:22;9.23;;;3.42;;
13590;SDS011;6866;50.778;7.206;2023-05-29T15:00:48;12.10;;;3.47;;
13590;SDS011;6866;50.778;7.206;2023-05-29T15:03:13;9.38;;;3.03;;
13590;SDS011;6866;50.778;7.206;2023-05-29T15:05:39;8.20;;;2.85;;
13590;SDS011;6866;50.778;7.206;2023-05-29T15:08:05;11.63;;;3.42;;
13590;SDS011;6866;50.778;7.206;2023-05-29T15:10:30;11.18;;;3.60;;
13590;SDS011;6866;50.778;7.206;2023-05-29T15:12:57;12.00;;;3.33;;
13590;SDS011;6866;50.778;7.206;2023-05-29T15:15:23;9.13;;;2.95;;
13590;SDS011;6866;50.778;7.206;2023-05-29T15:17:50;11.57;;;3.28;;
13590;SDS011;6866;50.778;7.206;2023-05-29T15:20:18;9.23;;;3.20;;
13590;SDS011;6866;50.778;7.206;2023-05-29T15:22:45;13.40;;;3.17;;
13590;SDS011;6866;50.778;7.206;2023-05-29T15:25:11;9.35;;;3.03;;
13590;SDS011;6866;50.778;7.206;2023-05-29T15:27:36;13.32;;;3.70;;
13590;SDS011;6866;50.778;7.206;2023-05-29T15:30:12;9.88;;;3.22;;
13590;SDS011;6866;50.778;7.206;2023-05-29T15:32:39;6.93;;;2.63;;
13590;SDS011;6866;50.778;7.206;2023-05-29T15:35:06;8.80;;;3.10;;
13590;SDS011;6866;50.778;7.206;2023-05-29T15:37:32;10.38;;;3.30;;
13590;SDS011;6866;50.778;7.206;2023-05-29T15:39:59;13.40;;;3.75;;
13590;SDS011;6866;50.778;7.206;2023-05-29T15:42:25;11.45;;;3.20;;
13590;SDS011;6866;50.778;7.206;2023-05-29T15:44:50;10.55;;;3.10;;
13590;SDS011;6866;50.778;7.206;2023-05-29T15:47:16;10.07;;;3.25;;
13590;SDS011;6866;50.778;7.206;2023-05-29T15:49:41;13.35;;;3.13;;
13590;SDS011;6866;50.778;7.206;2023-05-29T15:52:07;9.90;;;3.15;;
13590;SDS011;6866;50.778;7.206;2023-05-29T15:54:32;7.47;;;3.15;;
13590;SDS011;6866;50.778;7.206;2023-05-29T15:56:58;10.75;;;3.28;;
13590;SDS011;6866;50.778;7.206;2023-05-29T15:59:27;9.95;;;3.03;;
13590;SDS011;6866;50.778;7.206;2023-05-29T16:01:56;11.60;;;3.05;;
13590;SDS011;6866;50.778;7.206;2023-05-29T16:04:22;11.30;;;3.20;;
13590;SDS011;6866;50.778;7.206;2023-05-29T16:06:47;16.55;;;3.30;;
13590;SDS011;6866;50.778;7.206;2023-05-29T16:09:13;8.60;;;3.25;;
13590;SDS011;6866;50.778;7.206;2023-05-29T16:11:39;10.23;;;3.15;;
13590;SDS011;6866;50.778;7.206;2023-05-29T16:14:05;9.70;;;3.00;;
13590;SDS011;6866;50.778;7.206;2023-05-29T16:16:32;10.80;;;3.40;;
13590;SDS011;6866;50.778;7.206;2023-05-29T16:19:00;11.95;;;3.05;;
13590;SDS011;6866;50.778;7.206;2023-05-29T16:21:26;11.05;;;3.08;;
13590;SDS011;6866;50.778;7.206;2023-05-29T16:23:51;10.05;;;3.33;;
13590;SDS011;6866;50.778;7.206;2023-05-29T16:26:22;9.88;;;3.10;;
13590;SDS011;6866;50.778;7.206;2023-05-29T16:28:51;8.82;;;3.17;;
13590;SDS011;6866;50.778;7.206;2023-05-29T16:31:17;9.57;;;2.83;;
13590;SDS011;6866;50.778;7.206;2023-05-29T16:33:43;9.45;;;3.08;;
13590;SDS011;6866;50.778;7.206;2023-05-29T16:36:09;9.82;;;3.50;;
13590;SDS011;6866;50.778;7.206;2023-05-29T16:38:35;10.23;;;3.92;;
13590;SDS011;6866;50.778;7.206;2023-05-29T16:41:01;10.25;;;3.85;;
13590;SDS011;6866;50.778;7.206;2023-05-29T16:43:27;10.85;;;3.20;;
13590;SDS011;6866;50.778;7.206;2023-05-29T16:45:52;10.68;;;3.63;;
13590;SDS011;6866;50.778;7.206;2023-05-29T16:48:18;10.48;;;3.78;;
13590;SDS011;6866;50.778;7.206;2023-05-29T16:50:43;9.48;;;3.60;;
13590;SDS011;6866;50.778;7.206;2023-05-29T16:53:09;9.13;;;3.13;;
13590;SDS011;6866;50.778;7.206;2023-05-29T16:55:35;10.52;;;3.58;;
13590;SDS011;6866;50.778;7.206;2023-05-29T16:58:00;10.38;;;3.10;;
13590;SDS011;6866;50.778;7.206;2023-05-29T17:00:26;10.80;;;3.28;;
13590;SDS011;6866;50.778;7.206;2023-05-29T17:02:51;9.85;;;3.20;;
13590;SDS011;6866;50.778;7.206;2023-05-29T17:05:17;7.43;;;2.80;;
13590;SDS011;6866;50.778;7.206;2023-05-29T17:07:43;10.48;;;3.20;;
13590;SDS011;6866;50.778;7.206;2023-05-29T17:10:08;11.63;;;3.25;;
13590;SDS011;6866;50.778;7.206;2023-05-29T17:12:34;7.82;;;2.80;;
13590;SDS011;6866;50.778;7.206;2023-05-29T17:15:00;9.35;;;3.65;;
13590;SDS011;6866;50.778;7.206;2023-05-29T17:17:26;8.32;;;2.92;;
13590;SDS011;6866;50.778;7.206;2023-05-29T17:19:51;9.85;;;2.80;;
13590;SDS011;6866;50.778;7.206;2023-05-29T17:22:17;7.15;;;2.83;;
13590;SDS011;6866;50.778;7.206;2023-05-29T17:24:43;11.38;;;3.33;;
13590;SDS011;6866;50.778;7.206;2023-05-29T17:27:09;9.02;;;2.97;;
13590;SDS011;6866;50.778;7.206;2023-05-29T17:29:34;8.52;;;3.22;;
13590;SDS011;6866;50.778;7.206;2023-05-29T17:32:00;10.85;;;3.00;;
13590;SDS011;6866;50.778;7.206;2023-05-29T17:34:25;9.43;;;2.80;;
13590;SDS011;6866;50.778;7.206;2023-05-29T17:36:51;10.35;;;3.03;;
13590;SDS011;6866;50.778;7.206;2023-05-29T17:39:16;7.85;;;2.92;;
13590;SDS011;6866;50.778;7.206;2023-05-29T17:41:42;10.95;;;3.00;;